Terminal Aerodrome Forecast
Issued by NWS King Salmon, AK

Home | Current Version | Previous Version | Text Only | Print | Product List | Glossary On
Versions: 1 2 3 4 5 6 7 8 9 10 11 12 13 14 15 16 17 18 19 20 21 22 23 24 25 26 27 28 29 30 31 32 33 34 35 36 37 38 39 40
000
FTAK31 PANC 261407 AAA
TAFAKN
TAF AMD
PAKN 261407Z 2614/2712 17010KT P6SM -SHRA SCT015 OVC030
      TEMPO 2614/2618 BKN015
     FM261800 17010KT P6SM VCSH BKN035 OVC050
     FM262300 21016G22KT P6SM BKN050
     FM270600 19012KT P6SM SCT050 BKN100=

USA.gov is the U.S. government's official web portal to all federal, state and local government web resources and services.